Time;durP1;ratioP1;P1;durP2;ratioP2;P2;SDS_P1;SDS_P2;PMS_P1;PMS_P2;Temp;Humidity;BMP_temperature;BMP_pressure;BME280_temperature;BME280_humidity;BME280_pressure;Samples;Min_cycle;Max_cycle;Signal;HPM_P1;HPM_P2
2023/06/25 00:01:33;;;;;;;;;;;;;;;29.29;45.22;100619.97;5060725;28;70395;-44
2023/06/25 00:04:04;;;;;;;10.43;9.73;;;;;;;29.58;44.63;100620.41;5060617;28;67068;-45
2023/06/25 00:06:35;;;;;;;9.93;9.18;;;;;;;29.65;45.06;100626.66;5060476;28;69742;-47
2023/06/25 00:09:06;;;;;;;9.68;8.98;;;;;;;29.69;44.54;100633.25;5059816;28;66772;-48
2023/06/25 00:11:37;;;;;;;10.33;9.47;;;;;;;29.72;44.93;100629.31;5060105;28;70047;-47
2023/06/25 00:14:08;;;;;;;9.68;8.98;;;;;;;29.76;45.00;100636.75;5058373;28;65661;-45
2023/06/25 00:16:39;;;;;;;11.50;10.30;;;;;;;29.69;45.14;100619.75;5051076;28;70306;-44
2023/06/25 00:19:09;;;;;;;9.00;8.30;;;;;;;29.81;45.46;100636.09;5055575;28;66193;-46
2023/06/25 00:21:41;;;;;;;11.13;9.87;;;;;;;29.84;45.69;100632.97;5059237;28;69964;-47
2023/06/25 00:24:12;;;;;;;10.80;9.80;;;;;;;29.77;45.64;100616.78;5058586;28;66890;-43
2023/06/25 00:26:45;;;;;;;10.13;9.33;;;;;;;29.65;46.87;100606.91;5058338;28;70427;-45
2023/06/25 00:29:16;;;;;;;10.88;9.80;;;;;;;29.81;46.33;100615.31;5055001;28;66126;-47
2023/06/25 00:31:47;;;;;;;20.30;13.48;;;;;;;29.97;48.28;100626.63;5066915;28;70756;-47
2023/06/25 00:34:19;;;;;;;21.58;15.95;;;;;;;30.08;51.97;100616.97;5042565;28;65888;-47
2023/06/25 00:36:52;;;;;;;22.38;16.02;;;;;;;30.16;53.54;100620.22;5051766;28;69540;-46
2023/06/25 00:39:23;;;;;;;24.00;16.42;;;;;;;30.21;55.23;100617.69;5056941;28;65146;-48
2023/06/25 00:41:58;;;;;;;32.13;16.97;;;;;;;30.27;56.55;100618.69;5058865;28;69398;-47
2023/06/25 00:44:29;;;;;;;24.63;17.90;;;;;;;30.13;57.14;100585.50;5058822;28;66795;-46
2023/06/25 00:47:00;;;;;;;27.88;18.98;;;;;;;30.37;58.36;100613.63;5058903;28;69690;-47
2023/06/25 00:49:33;;;;;;;22.45;17.10;;;;;;;30.45;59.28;100613.31;5055912;28;65219;-45
2023/06/25 00:52:08;;;;;;;27.05;16.35;;;;;;;30.53;60.03;100609.47;5056166;28;70456;-48
2023/06/25 00:54:41;;;;;;;19.63;16.08;;;;;;;30.47;60.73;100621.22;5059287;28;66299;-45
2023/06/25 00:57:15;;;;;;;24.25;16.70;;;;;;;30.60;60.98;100612.94;5058533;28;70534;-46
2023/06/25 00:59:48;;;;;;;21.40;15.32;;;;;;;30.64;60.95;100611.44;5044372;28;66939;-46
2023/06/25 01:02:43;;;;;;;19.77;16.17;;;;;;;29.86;64.88;100502.94;5063924;28;70391;-46
2023/06/25 01:05:29;;;;;;;27.48;16.58;;;;;;;30.14;64.06;100537.63;5051843;28;65638;-45
2023/06/25 01:08:03;;;;;;;27.50;17.55;;;;;;;30.73;62.77;100631.75;5054888;28;70451;-45
2023/06/25 01:10:35;;;;;;;26.10;17.45;;;;;;;30.77;63.71;100636.72;5058108;28;66736;-47
2023/06/25 01:13:06;;;;;;;27.90;17.20;;;;;;;30.81;63.70;100643.38;5057913;28;69977;-47
2023/06/25 01:15:38;;;;;;;26.77;16.83;;;;;;;30.83;64.05;100641.28;5040100;28;66252;-47
2023/06/25 01:18:13;;;;;;;29.70;17.17;;;;;;;30.85;64.45;100636.47;5056213;28;69204;-47
2023/06/25 01:20:44;;;;;;;22.20;16.02;;;;;;;30.88;64.94;100638.72;5058340;28;66593;-47
2023/06/25 01:23:15;;;;;;;21.23;15.57;;;;;;;30.91;65.02;100649.09;5050448;28;69997;-47
2023/06/25 01:25:47;;;;;;;22.55;16.33;;;;;;;30.97;64.57;100653.59;5058567;28;66579;-46
2023/06/25 01:28:21;;;;;;;20.65;15.38;;;;;;;31.00;65.03;100658.56;5059112;28;69892;-46
2023/06/25 01:30:52;;;;;;;21.45;14.45;;;;;;;30.92;65.21;100639.91;5057592;28;66043;-46
2023/06/25 01:33:25;;;;;;;23.00;14.48;;;;;;;31.07;65.21;100664.75;5058014;28;69680;-48
2023/06/25 01:35:59;;;;;;;20.23;15.73;;;;;;;31.09;65.17;100668.06;5054552;28;66598;-45
2023/06/25 01:38:30;;;;;;;21.65;16.13;;;;;;;31.06;65.12;100648.69;5038461;28;69693;-47
2023/06/25 01:41:01;;;;;;;19.48;14.63;;;;;;;31.19;65.53;100658.56;5054837;28;66645;-47
2023/06/25 01:43:32;;;;;;;16.90;13.70;;;;;;;31.12;65.53;100651.34;5055404;28;71072;-47
2023/06/25 01:46:03;;;;;;;31.33;18.33;;;;;;;31.20;72.25;100668.31;5057640;28;65833;-46
2023/06/25 01:48:34;;;;;;;29.37;15.30;;;;;;;31.25;73.04;100663.88;5036720;28;69754;-45
2023/06/25 01:51:05;;;;;;;54.90;17.87;;;;;;;31.19;74.45;100656.66;5055923;28;66701;-45
2023/06/25 01:53:36;;;;;;;47.22;17.63;;;;;;;31.27;74.32;100664.50;5054755;28;69890;-45
2023/06/25 01:56:07;;;;;;;33.03;17.88;;;;;;;31.32;75.02;100671.94;5053589;28;66286;-46
2023/06/25 01:58:38;;;;;;;23.83;16.63;;;;;;;31.32;74.95;100667.34;5041644;28;70006;-48
2023/06/25 02:01:10;;;;;;;14.30;12.77;;;;;;;31.41;70.72;100669.78;5051986;28;65916;-49
2023/06/25 02:03:41;;;;;;;13.00;11.52;;;;;;;31.42;69.94;100677.66;5038168;28;70344;-48
2023/06/25 02:06:14;;;;;;;13.07;11.70;;;;;;;31.33;68.88;100651.91;5043241;28;66164;-47
2023/06/25 02:08:45;;;;;;;19.45;12.65;;;;;;;31.11;69.02;100610.91;5058302;28;69868;-48
2023/06/25 02:11:16;;;;;;;12.25;11.07;;;;;;;31.51;68.28;100675.44;5058282;28;66035;-50
2023/06/25 02:13:47;;;;;;;11.55;10.35;;;;;;;31.53;67.88;100682.31;5040757;28;69912;-50
2023/06/25 02:16:18;;;;;;;11.77;10.70;;;;;;;31.59;67.11;100675.13;5042591;28;66487;-49
2023/06/25 02:18:49;;;;;;;11.77;10.60;;;;;;;31.59;67.54;100667.00;5059149;28;69158;-48
2023/06/25 02:21:21;;;;;;;13.07;11.30;;;;;;;31.57;67.91;100661.00;5059022;28;66322;-48
2023/06/25 02:23:51;;;;;;;10.57;9.60;;;;;;;31.67;67.59;100669.38;5043875;28;69685;-47
2023/06/25 02:26:23;;;;;;;11.73;10.60;;;;;;;31.70;67.11;100671.63;5065482;28;66193;-48
2023/06/25 02:28:54;;;;;;;11.00;9.90;;;;;;;31.64;67.23;100650.06;5065035;28;69909;-50
2023/06/25 02:31:26;;;;;;;10.40;9.50;;;;;;;31.75;67.02;100671.78;5065433;28;66449;-48
2023/06/25 02:33:58;;;;;;;12.68;10.05;;;;;;;31.80;67.24;100677.34;5047207;28;70511;-48
2023/06/25 02:36:29;;;;;;;10.35;9.45;;;;;;;31.78;67.03;100667.78;5067259;28;66340;-50
2023/06/25 02:39:00;;;;;;;10.65;9.40;;;;;;;31.86;67.06;100674.75;5065985;28;69983;-48
2023/06/25 02:41:31;;;;;;;9.85;9.00;;;;;;;31.89;67.14;100666.97;5066287;28;66521;-48
2023/06/25 02:44:02;;;;;;;9.67;8.83;;;;;;;31.89;67.11;100668.88;5065541;28;69577;-48
2023/06/25 02:46:35;;;;;;;9.80;9.05;;;;;;;31.93;67.08;100689.91;5064584;28;65605;-47
2023/06/25 02:49:06;;;;;;;9.25;8.63;;;;;;;31.97;67.04;100688.38;5046687;28;70426;-47
2023/06/25 02:51:37;;;;;;;9.63;8.83;;;;;;;31.98;66.99;100676.47;5059698;28;66143;-47
2023/06/25 02:54:08;;;;;;;10.38;9.38;;;;;;;31.97;67.10;100669.38;5042663;28;69677;-47
2023/06/25 02:56:39;;;;;;;9.68;8.85;;;;;;;32.04;67.08;100672.84;5066100;28;66670;-48
2023/06/25 02:59:11;;;;;;;9.38;8.10;;;;;;;32.07;67.24;100673.41;5062620;28;69774;-48
2023/06/25 03:01:42;;;;;;;9.40;8.18;;;;;;;32.08;66.99;100666.94;5044496;28;66152;-48
2023/06/25 03:04:13;;;;;;;10.10;7.82;;;;;;;32.13;66.94;100669.78;5063039;28;70009;-49
2023/06/25 03:06:45;;;;;;;9.43;8.63;;;;;;;31.90;67.04;100619.81;5056151;28;66309;-47
2023/06/25 03:09:16;;;;;;;8.65;8.00;;;;;;;32.17;67.03;100657.38;5040705;28;70409;-49
2023/06/25 03:11:47;;;;;;;8.68;7.90;;;;;;;31.92;66.71;100606.84;5061605;28;66032;-48
2023/06/25 03:14:18;;;;;;;8.27;7.47;;;;;;;32.23;66.85;100657.28;5044072;28;70282;-48
2023/06/25 03:17:06;;;;;;;8.93;8.13;;;;;;;32.22;66.55;100647.47;5064407;28;65319;-49
2023/06/25 03:19:37;;;;;;;7.95;7.25;;;;;;;32.29;66.68;100652.81;5059560;28;69290;-48
2023/06/25 03:22:07;;;;;;;8.23;7.47;;;;;;;32.33;66.90;100647.72;5060753;28;65309;-48
2023/06/25 03:24:42;;;;;;;7.97;7.15;;;;;;;32.27;66.72;100631.31;5027057;28;70144;-49
2023/06/25 03:27:13;;;;;;;9.05;7.55;;;;;;;32.37;66.78;100646.19;5061472;28;66216;-48
2023/06/25 03:29:46;;;;;;;9.88;6.85;;;;;;;32.41;66.60;100641.94;5064136;28;69930;-49
2023/06/25 03:32:18;;;;;;;6.78;6.03;;;;;;;32.42;66.65;100630.81;5054083;28;67105;-49
2023/06/25 03:34:49;;;;;;;8.38;6.30;;;;;;;32.46;66.80;100629.34;5046141;28;69321;-50
2023/06/25 03:37:20;;;;;;;12.63;6.73;;;;;;;32.49;66.85;100631.56;5061409;28;65117;-49
2023/06/25 03:39:52;;;;;;;12.63;7.28;;;;;;;32.38;67.18;100599.81;5040866;28;70011;-50
2023/06/25 03:42:22;;;;;;;9.97;6.80;;;;;;;32.53;67.57;100620.25;5066038;28;65382;-48
2023/06/25 03:44:55;;;;;;;7.53;6.67;;;;;;;32.59;67.59;100616.56;5073120;28;71202;-49
2023/06/25 03:47:30;;;;;;;6.72;6.13;;;;;;;32.64;67.58;100624.81;5044631;28;66276;-48
2023/06/25 03:50:01;;;;;;;12.73;8.25;;;;;;;32.01;69.85;100534.94;5044339;28;70481;-49
2023/06/25 03:52:36;;;;;;;15.05;8.32;;;;;;;32.43;69.93;100602.63;5059336;28;66382;-51
2023/06/25 03:55:08;;;;;;;16.17;7.43;;;;;;;32.47;70.58;100611.16;5039619;28;70293;-48
2023/06/25 03:57:39;;;;;;;14.00;7.75;;;;;;;32.46;70.70;100607.63;5058565;28;66423;-52
2023/06/25 04:00:10;;;;;;;10.13;6.97;;;;;;;31.82;70.90;100504.34;5057434;28;69585;-50
2023/06/25 04:02:41;;;;;;;13.38;7.03;;;;;;;32.36;71.27;100590.25;5061195;28;66178;-49
2023/06/25 04:05:14;;;;;;;8.30;6.60;;;;;;;32.36;71.25;100585.63;5063974;28;70547;-49
2023/06/25 04:07:45;;;;;;;10.00;7.33;;;;;;;32.36;71.58;100591.06;5042493;28;67988;-46
2023/06/25 04:10:17;;;;;;;11.07;6.60;;;;;;;32.40;71.85;100584.13;5044563;28;69737;-46
2023/06/25 04:12:48;;;;;;;8.25;6.38;;;;;;;32.37;72.65;100581.84;5042135;28;66123;-46
2023/06/25 04:15:20;;;;;;;15.85;7.32;;;;;;;32.41;72.32;100579.50;5041050;28;70200;-45
2023/06/25 04:17:51;;;;;;;10.20;6.35;;;;;;;32.38;72.70;100572.66;5031691;28;66967;-47
2023/06/25 04:20:26;;;;;;;11.20;6.50;;;;;;;32.38;72.34;100572.66;5038766;28;70482;-48
2023/06/25 04:22:57;;;;;;;16.10;7.20;;;;;;;32.42;72.54;100578.44;5044292;28;65460;-47
2023/06/25 04:25:28;;;;;;;14.93;5.53;;;;;;;32.51;71.26;100570.78;5061534;28;69568;-46
2023/06/25 04:27:59;;;;;;;11.00;4.88;;;;;;;32.55;71.13;100593.69;5059854;28;66398;-47
2023/06/25 04:30:31;;;;;;;;;;;;;;;32.31;72.24;100607.22;5062227;28;69878;-47
2023/06/25 04:33:02;;;;;;;5.32;4.82;;;;;;;32.55;70.14;100604.53;5041346;28;66245;-46
2023/06/25 04:35:33;;;;;;;5.25;4.85;;;;;;;32.61;70.24;100595.44;5054798;28;70036;-47
2023/06/25 04:38:05;;;;;;;5.30;4.90;;;;;;;32.52;69.76;100569.72;5039780;28;66693;-48
2023/06/25 04:40:36;;;;;;;8.33;6.07;;;;;;;32.74;69.62;100586.22;5069798;28;71139;-46
2023/06/25 04:43:09;;;;;;;6.60;5.85;;;;;;;32.55;69.47;100547.53;5041482;28;66652;-45
2023/06/25 04:45:41;;;;;;;13.37;7.17;;;;;;;32.61;71.96;100569.09;5045937;28;71127;-48
2023/06/25 04:48:14;;;;;;;13.32;6.82;;;;;;;32.65;73.18;100567.56;5042895;28;66560;-49
2023/06/25 04:50:46;;;;;;;9.30;6.35;;;;;;;32.61;73.88;100565.56;5043687;28;69857;-46
2023/06/25 04:53:17;;;;;;;8.20;6.57;;;;;;;32.60;74.26;100569.34;5044058;28;66112;-50
2023/06/25 04:55:49;;;;;;;9.45;7.00;;;;;;;32.58;75.38;100555.19;5052733;28;69825;-49
2023/06/25 04:58:20;;;;;;;13.15;7.18;;;;;;;32.51;75.68;100532.75;5059079;28;65950;-49
2023/06/25 05:00:50;;;;;;;11.55;7.13;;;;;;;32.62;75.86;100548.19;5065210;28;69619;-49
2023/06/25 05:03:21;;;;;;;11.45;7.03;;;;;;;32.60;75.95;100539.47;5054022;28;67054;-49
2023/06/25 05:05:53;;;;;;;13.52;6.93;;;;;;;32.59;76.02;100532.38;5060338;28;70270;-51
2023/06/25 05:08:24;;;;;;;7.57;6.63;;;;;;;32.62;76.20;100540.06;5060181;28;65851;-48
2023/06/25 05:10:55;;;;;;;8.53;7.43;;;;;;;32.62;76.28;100531.91;5061188;28;70190;-48
2023/06/25 05:13:30;;;;;;;14.20;9.63;;;;;;;32.11;77.30;100468.38;5055238;28;66334;-45
2023/06/25 05:16:02;;;;;;;17.05;9.13;;;;;;;32.60;77.23;100550.34;5059905;28;69782;-46
2023/06/25 05:18:33;;;;;;;14.00;8.18;;;;;;;32.54;76.49;100532.28;5042038;28;65118;-48
2023/06/25 05:21:05;;;;;;;12.20;8.70;;;;;;;32.52;73.20;100539.84;5056695;28;70284;-49
2023/06/25 05:24:03;;;;;;;8.00;7.33;;;;;;;32.30;70.34;100526.06;5053092;28;66292;-51
2023/06/25 05:26:34;;;;;;;13.23;7.07;;;;;;;32.14;67.73;100500.47;5056069;28;69400;-49
2023/06/25 05:29:05;;;;;;;9.60;6.87;;;;;;;32.08;66.14;100512.28;5060868;28;67176;-47
2023/06/25 05:31:36;;;;;;;11.03;6.47;;;;;;;31.98;64.37;100510.16;5053397;28;70378;-46
2023/06/25 05:34:08;;;;;;;12.35;6.45;;;;;;;31.86;63.14;100509.31;5060377;28;65685;-49
2023/06/25 05:36:39;;;;;;;7.33;5.97;;;;;;;31.78;61.36;100491.50;5059526;28;70502;-50
2023/06/25 05:39:10;;;;;;;6.35;5.72;;;;;;;31.71;60.10;100490.78;5046560;28;65957;-49
2023/06/25 05:41:41;;;;;;;9.10;6.17;;;;;;;31.58;59.27;100481.00;5064465;28;71083;-52
2023/06/25 05:44:13;;;;;;;8.23;5.15;;;;;;;31.56;60.06;100477.69;5059262;28;66495;-50
2023/06/25 05:46:44;;;;;;;;;;;;;;;31.31;59.13;100478.66;5070361;28;70551;-50
2023/06/25 05:49:15;;;;;;;11.30;6.38;;;;;;;30.80;57.68;100384.47;5058920;28;65721;-49
2023/06/25 05:51:46;;;;;;;5.30;4.85;;;;;;;31.32;55.96;100468.69;5059278;28;70553;-51
2023/06/25 05:54:17;;;;;;;4.95;4.43;;;;;;;31.30;55.17;100471.63;5060523;28;65322;-50
2023/06/25 05:56:48;;;;;;;4.90;4.50;;;;;;;31.20;54.29;100463.22;5053829;28;70013;-50
2023/06/25 05:59:19;;;;;;;5.10;4.47;;;;;;;31.19;53.42;100458.06;5056263;28;67057;-51
2023/06/25 06:01:51;;;;;;;4.38;4.05;;;;;;;31.07;52.73;100447.19;5060628;28;70026;-50
2023/06/25 06:04:21;;;;;;;4.33;3.97;;;;;;;30.40;52.03;100345.25;5043071;28;66228;-48
2023/06/25 06:06:53;;;;;;;4.47;4.07;;;;;;;31.06;51.42;100451.75;5060421;28;70406;-48
2023/06/25 06:09:24;;;;;;;4.43;4.03;;;;;;;31.02;51.14;100466.84;5061073;28;66048;-50
2023/06/25 06:11:55;;;;;;;4.65;4.05;;;;;;;31.01;50.85;100465.19;5057067;28;70588;-50
2023/06/25 06:14:26;;;;;;;4.20;3.90;;;;;;;30.99;50.80;100472.72;5061058;28;66568;-49
2023/06/25 06:16:57;;;;;;;4.25;3.85;;;;;;;30.92;50.18;100471.97;5060350;28;70313;-49
2023/06/25 06:19:28;;;;;;;4.25;3.95;;;;;;;30.91;49.88;100489.28;5059649;28;65951;-49
2023/06/25 06:21:59;;;;;;;3.37;3.07;;;;;;;30.92;49.92;100488.22;5035316;28;69480;-50
2023/06/25 06:24:30;;;;;;;3.60;3.37;;;;;;;30.87;49.37;100480.81;5052978;28;66320;-49
2023/06/25 06:27:02;;;;;;;5.20;3.33;;;;;;;30.76;48.80;100467.19;5054782;28;69908;-50
2023/06/25 06:29:32;;;;;;;3.38;3.08;;;;;;;30.61;48.24;100435.09;5057793;28;65623;-52
2023/06/25 06:32:04;;;;;;;3.42;3.22;;;;;;;30.80;48.26;100466.53;5040644;28;69136;-51
2023/06/25 06:34:35;;;;;;;3.20;2.95;;;;;;;30.73;48.21;100458.47;5060158;28;66020;-51
2023/06/25 06:37:07;;;;;;;6.87;3.33;;;;;;;30.69;47.90;100457.28;5057029;28;69975;-48
2023/06/25 06:39:38;;;;;;;4.85;2.92;;;;;;;30.58;47.49;100466.16;5041180;28;65582;-49
2023/06/25 06:42:09;;;;;;;3.25;3.05;;;;;;;30.65;47.18;100471.50;5059824;28;69383;-48
2023/06/25 06:44:41;;;;;;;3.90;2.88;;;;;;;30.64;47.03;100467.94;5050081;28;66183;-48
2023/06/25 06:47:12;;;;;;;2.75;2.47;;;;;;;30.60;47.38;100463.25;5063475;28;70419;-48
2023/06/25 06:49:43;;;;;;;2.55;2.35;;;;;;;30.59;47.24;100462.41;5060203;28;65717;-50
2023/06/25 06:52:15;;;;;;;3.78;2.10;;;;;;;30.58;46.86;100468.06;5059059;28;70073;-49
2023/06/25 06:54:46;;;;;;;2.47;2.28;;;;;;;30.56;47.00;100457.44;5060587;28;66586;-51
2023/06/25 06:57:17;;;;;;;2.50;2.30;;;;;;;30.58;47.73;100460.75;5060221;28;70280;-48
2023/06/25 06:59:48;;;;;;;2.92;1.80;;;;;;;30.41;47.27;100443.50;5050612;28;66310;-46
2023/06/25 07:02:19;;;;;;;2.40;2.20;;;;;;;30.33;47.18;100435.69;5060992;28;70564;-50
2023/06/25 07:04:51;;;;;;;3.05;2.75;;;;;;;30.53;51.53;100467.91;5061978;28;66148;-54
2023/06/25 07:07:23;;;;;;;3.35;3.05;;;;;;;30.54;57.60;100437.91;5035259;28;69700;-51
2023/06/25 07:09:55;;;;;;;4.63;2.63;;;;;;;30.38;57.89;100379.00;5041674;28;65976;-47
2023/06/25 07:12:26;;;;;;;10.10;2.65;;;;;;;30.90;57.74;100436.19;5024980;28;69346;-49
2023/06/25 07:14:57;;;;;;;8.85;2.28;;;;;;;30.95;58.21;100406.50;5061193;28;66188;-50
2023/06/25 07:17:29;;;;;;;6.43;2.58;;;;;;;31.10;57.84;100398.78;5063500;28;70461;-49
2023/06/25 07:20:00;;;;;;;;;;;;;;;31.03;58.05;100392.63;5022104;28;66724;-49
2023/06/25 07:22:33;;;;;;;2.10;2.00;;;;;;;31.24;57.90;100393.97;5023848;28;70126;-57
2023/06/25 07:25:04;;;;;;;3.88;2.70;;;;;;;31.14;58.03;100388.28;5028346;28;66480;-49
2023/06/25 07:27:35;;;;;;;2.70;2.50;;;;;;;31.34;58.12;100420.47;5045066;28;70088;-48
2023/06/25 07:30:07;;;;;;;3.40;2.28;;;;;;;31.27;58.22;100398.09;5043401;28;65785;-49
2023/06/25 07:32:38;;;;;;;1.70;1.60;;;;;;;31.34;58.51;100382.53;5043214;28;69742;-49
2023/06/25 07:35:09;;;;;;;7.43;2.08;;;;;;;31.50;58.62;100397.31;5041196;28;65086;-49
2023/06/25 07:37:41;;;;;;;3.47;1.60;;;;;;;31.50;58.59;100381.84;5043408;28;70171;-48
2023/06/25 07:40:12;;;;;;;2.22;1.73;;;;;;;31.50;58.96;100379.16;5043128;28;66617;-51
2023/06/25 07:42:43;;;;;;;3.28;1.45;;;;;;;31.60;59.50;100384.81;5038772;28;70286;-48
2023/06/25 07:45:14;;;;;;;2.73;1.97;;;;;;;31.64;59.61;100397.88;5038772;28;66080;-50
2023/06/25 07:47:46;;;;;;;2.40;1.70;;;;;;;31.61;59.96;100400.00;5039036;28;70579;-50
2023/06/25 07:50:16;;;;;;;2.05;1.83;;;;;;;31.54;59.95;100388.47;5039433;28;65693;-51
2023/06/25 07:52:48;;;;;;;10.63;2.00;;;;;;;31.73;62.00;100418.16;5042607;28;71672;-47
2023/06/25 07:55:19;;;;;;;2.73;2.50;;;;;;;31.71;62.95;100404.03;5035925;28;66188;-47
2023/06/25 07:57:50;;;;;;;2.72;2.53;;;;;;;31.79;64.44;100422.66;5037985;28;69124;-47
2023/06/25 08:00:20;;;;;;;5.10;2.33;;;;;;;31.79;64.62;100428.06;5039847;28;67270;-50
2023/06/25 08:02:52;;;;;;;5.13;2.70;;;;;;;31.86;65.06;100438.78;5041108;28;71407;-47
2023/06/25 08:05:22;;;;;;;5.77;3.20;;;;;;;31.87;65.46;100449.38;5047092;28;65571;-46
2023/06/25 08:07:56;;;;;;;5.35;2.85;;;;;;;31.72;66.07;100433.59;5043439;28;69239;-47
2023/06/25 08:10:27;;;;;;;6.57;2.53;;;;;;;31.90;65.83;100456.22;5034591;28;66197;-47
2023/06/25 08:12:58;;;;;;;4.20;2.83;;;;;;;31.57;65.81;100415.09;5037766;28;70645;-49
2023/06/25 08:15:29;;;;;;;2.70;2.47;;;;;;;31.88;65.99;100463.78;5038856;28;65870;-48
2023/06/25 08:18:00;;;;;;;3.10;2.75;;;;;;;31.92;66.07;100482.06;5042894;28;69935;-47
2023/06/25 08:20:32;;;;;;;4.93;2.63;;;;;;;31.87;65.96;100506.34;5051931;28;66483;-48
2023/06/25 08:23:06;;;;;;;3.00;2.70;;;;;;;31.85;66.22;100519.34;5062318;28;43358;-47
2023/06/25 08:25:36;;;;;;;12.45;2.92;;;;;;;31.97;66.03;100543.78;5059595;28;65974;-43
2023/06/25 08:28:08;;;;;;;3.78;2.92;;;;;;;31.94;66.13;100550.50;5058919;28;69486;-44
2023/06/25 08:30:39;;;;;;;3.33;2.80;;;;;;;31.95;66.09;100546.72;5061609;28;65891;-45
2023/06/25 08:33:11;;;;;;;3.13;2.80;;;;;;;31.88;66.21;100540.56;5061184;28;69517;-44
2023/06/25 08:35:41;;;;;;;4.35;2.80;;;;;;;31.96;65.99;100526.66;5062340;28;67113;-43
2023/06/25 08:38:17;;;;;;;2.90;2.50;;;;;;;31.94;65.87;100515.22;5042820;28;69877;-45
2023/06/25 08:40:49;;;;;;;7.15;2.20;;;;;;;31.80;65.98;100483.94;5061044;28;65694;-46
2023/06/25 08:43:20;;;;;;;4.93;2.72;;;;;;;31.65;65.77;100448.31;5060285;28;69762;-46
2023/06/25 08:45:51;;;;;;;3.17;2.17;;;;;;;31.98;65.64;100491.16;5057959;28;66242;-45
2023/06/25 08:48:24;;;;;;;2.38;2.00;;;;;;;31.96;65.79;100469.72;5059802;28;70372;-49
2023/06/25 08:50:57;;;;;;;3.28;2.05;;;;;;;32.02;65.12;100443.50;5039676;28;65557;-48
2023/06/25 08:53:30;;;;;;;9.57;1.40;;;;;;;31.96;62.56;100450.72;5059531;28;68593;-48
2023/06/25 08:56:03;;;;;;;13.52;1.83;;;;;;;30.85;62.53;100281.72;5056980;28;66888;-47
2023/06/25 08:58:36;;;;;;;16.73;2.35;;;;;;;31.66;62.42;100401.19;5053873;28;69428;-45
2023/06/25 09:01:07;;;;;;;8.68;1.92;;;;;;;31.87;62.42;100435.00;5059001;28;66373;-46
2023/06/25 09:03:38;;;;;;;7.67;1.67;;;;;;;31.88;62.57;100444.81;5061710;28;69217;-47
2023/06/25 09:06:14;;;;;;;4.22;1.90;;;;;;;31.30;61.90;100354.28;5058286;28;66655;-46
2023/06/25 09:08:46;;;;;;;6.60;1.80;;;;;;;31.82;62.36;100416.75;5061576;28;69562;-47
2023/06/25 09:11:16;;;;;;;8.00;1.85;;;;;;;31.85;62.06;100408.13;5059249;28;66119;-49
2023/06/25 09:13:47;;;;;;;3.00;1.73;;;;;;;31.86;62.43;100403.53;5060841;28;70467;-48
2023/06/25 09:16:18;;;;;;;2.30;2.05;;;;;;;31.78;62.54;100399.28;5064158;28;67791;-47
2023/06/25 09:18:49;;;;;;;1.58;1.48;;;;;;;31.82;62.57;100416.75;5059050;28;70328;-47
2023/06/25 09:21:21;;;;;;;11.25;2.00;;;;;;;31.99;62.50;100431.25;5061349;28;66082;-46
2023/06/25 09:23:52;;;;;;;1.40;1.30;;;;;;;31.87;62.22;100403.25;5062261;28;71415;-47
2023/06/25 09:26:23;;;;;;;12.18;1.83;;;;;;;32.08;62.14;100430.88;5063065;28;66188;-45
2023/06/25 09:28:59;;;;;;;2.00;1.48;;;;;;;32.04;62.12;100425.94;5025306;28;69219;-46
2023/06/25 09:31:33;;;;;;;3.30;1.98;;;;;;;32.09;61.83;100429.81;5059507;28;66540;-46
2023/06/25 09:34:05;;;;;;;5.65;2.08;;;;;;;31.97;61.71;100376.41;5058926;28;70467;-44
2023/06/25 09:36:36;;;;;;;4.93;2.25;;;;;;;31.88;61.63;100377.81;5057579;28;65926;-46
2023/06/25 09:39:10;;;;;;;8.13;3.58;;;;;;;31.63;61.95;100326.56;5061853;28;70821;-45
2023/06/25 09:41:41;;;;;;;5.28;3.30;;;;;;;32.24;61.97;100424.72;5061650;28;66050;-45
2023/06/25 09:44:14;;;;;;;6.75;3.97;;;;;;;32.15;62.45;100415.28;5061894;28;70704;-46
2023/06/25 09:46:48;;;;;;;10.77;5.05;;;;;;;32.17;62.46;100413.16;5058494;28;66529;-47
2023/06/25 09:49:20;;;;;;;4.22;3.83;;;;;;;32.24;62.81;100430.94;5056342;28;69261;-47
2023/06/25 09:52:07;;;;;;;8.77;5.53;;;;;;;32.08;63.70;100409.16;5061797;28;66194;-46
2023/06/25 09:54:43;;;;;;;8.85;5.57;;;;;;;32.29;62.96;100432.97;5057167;28;70084;-48
2023/06/25 09:57:16;;;;;;;7.47;5.93;;;;;;;31.80;63.24;100367.34;5061821;28;66373;-45
2023/06/25 09:59:48;;;;;;;7.35;5.90;;;;;;;32.32;63.26;100443.31;5044381;28;69990;-45
2023/06/25 10:02:21;;;;;;;6.40;5.22;;;;;;;32.22;63.55;100424.13;5061677;28;66294;-46
2023/06/25 10:04:52;;;;;;;9.85;5.35;;;;;;;32.35;63.48;100436.59;5054613;28;70488;-47
2023/06/25 10:07:24;;;;;;;5.72;4.85;;;;;;;32.32;63.26;100443.31;5059720;28;67085;-46
2023/06/25 10:09:56;;;;;;;6.10;4.65;;;;;;;32.26;63.89;100425.25;5056890;28;70749;-46
2023/06/25 10:12:33;;;;;;;5.65;4.60;;;;;;;32.30;64.34;100422.91;5056374;28;65634;-49
2023/06/25 10:15:05;;;;;;;4.70;4.38;;;;;;;32.37;64.35;100435.25;5056495;28;69865;-47
2023/06/25 10:17:35;;;;;;;4.78;4.38;;;;;;;32.35;64.37;100423.84;5060495;28;66833;-49
2023/06/25 10:20:07;;;;;;;7.27;4.17;;;;;;;32.10;64.47;100386.16;5057070;28;69769;-48
2023/06/25 10:22:39;;;;;;;5.55;4.55;;;;;;;32.32;64.69;100427.03;5056176;28;65420;-46
2023/06/25 10:25:11;;;;;;;7.30;4.57;;;;;;;32.34;64.39;100424.88;5056673;28;69659;-46
2023/06/25 10:27:42;;;;;;;12.65;4.72;;;;;;;32.28;64.61;100420.44;5058430;28;66262;-47
2023/06/25 10:30:14;;;;;;;5.13;4.63;;;;;;;31.66;64.62;100323.38;5058361;28;70662;-47
2023/06/25 10:32:45;;;;;;;6.40;4.45;;;;;;;32.37;64.36;100445.31;5056582;28;66636;-48
2023/06/25 10:35:19;;;;;;;7.15;5.00;;;;;;;32.37;64.52;100467.84;5051174;28;69995;-48
2023/06/25 10:37:50;;;;;;;6.28;5.68;;;;;;;32.35;64.66;100452.88;5040600;28;66497;-45
2023/06/25 10:40:21;;;;;;;6.32;5.72;;;;;;;32.31;64.74;100444.38;5057474;28;69451;-46
2023/06/25 10:42:52;;;;;;;10.05;5.95;;;;;;;32.36;65.04;100466.19;5059685;28;65518;-46
2023/06/25 10:45:24;;;;;;;7.22;5.18;;;;;;;32.38;64.89;100474.94;5061294;28;70012;-47
2023/06/25 10:48:11;;;;;;;5.35;4.95;;;;;;;32.33;65.46;100485.69;5063445;28;66400;-46
2023/06/25 10:50:42;;;;;;;5.47;5.05;;;;;;;32.33;65.25;100493.81;5062444;28;68171;-46
2023/06/25 10:53:15;;;;;;;7.85;5.25;;;;;;;31.93;65.20;100443.06;5061601;28;66854;-44
2023/06/25 10:55:49;;;;;;;4.60;4.15;;;;;;;32.27;65.40;100497.50;5060324;28;70160;-46
2023/06/25 10:58:23;;;;;;;6.28;4.55;;;;;;;31.78;64.93;100437.25;5061451;28;65649;-46
2023/06/25 11:00:56;;;;;;;7.85;4.70;;;;;;;32.24;65.25;100516.97;5061801;28;69585;-45
2023/06/25 11:03:27;;;;;;;10.43;5.35;;;;;;;32.30;65.67;100540.44;5043179;28;66836;-48
2023/06/25 11:06:00;;;;;;;8.03;5.00;;;;;;;32.32;65.75;100562.75;5059124;28;70529;-46
2023/06/25 11:08:31;;;;;;;6.15;4.65;;;;;;;32.33;65.91;100575.25;5058637;28;66296;-47
2023/06/25 11:11:03;;;;;;;;;;;;;;;32.00;67.57;100582.09;5058750;28;69298;-44
2023/06/25 11:13:34;;;;;;;8.05;5.97;;;;;;;32.16;68.38;100594.16;5060900;28;67430;-49
2023/06/25 11:16:06;;;;;;;6.47;5.73;;;;;;;32.19;69.15;100592.84;5055715;28;70550;-47
2023/06/25 11:18:37;;;;;;;16.77;6.43;;;;;;;32.13;69.44;100601.94;5055718;28;65957;-46
2023/06/25 11:21:09;;;;;;;8.75;6.20;;;;;;;31.51;69.59;100507.38;5060069;28;70533;-47
2023/06/25 11:23:46;;;;;;;7.20;5.50;;;;;;;31.32;69.47;100487.66;5061779;28;66184;-45
2023/06/25 11:26:17;;;;;;;14.68;5.78;;;;;;;31.98;69.57;100611.38;5061238;28;69622;-45
2023/06/25 11:28:49;;;;;;;8.97;5.97;;;;;;;31.93;69.92;100616.66;5061930;28;66189;-47
2023/06/25 11:31:20;;;;;;;10.15;5.72;;;;;;;31.74;70.05;100588.78;5056478;28;69747;-46
2023/06/25 11:33:55;;;;;;;8.27;6.28;;;;;;;31.80;70.25;100614.94;5060057;28;66300;-46
2023/06/25 11:36:26;;;;;;;6.75;6.07;;;;;;;31.98;70.40;100654.78;5062681;28;70370;-45
2023/06/25 11:38:58;;;;;;;7.33;5.93;;;;;;;31.97;70.03;100655.81;5060925;28;66048;-46
2023/06/25 11:41:29;;;;;;;8.82;6.53;;;;;;;31.94;70.49;100648.16;5063013;28;69563;-45
2023/06/25 11:44:00;;;;;;;11.40;6.28;;;;;;;31.96;70.44;100666.91;5061362;28;65128;-47